sensor_id;sensor_type;location;lat;lon;timestamp;P1;durP1;ratioP1;P2;durP2;ratioP2
71183;SDS011;58887;51.980;4.464;2023-04-24T00:00:46;239.03;;;239.03;;
71183;SDS011;58887;51.980;4.464;2023-04-24T00:03:12;231.36;;;231.36;;
71183;SDS011;58887;51.980;4.464;2023-04-24T00:05:41;214.52;;;214.52;;
71183;SDS011;58887;51.980;4.464;2023-04-24T00:08:07;190.50;;;190.50;;
71183;SDS011;58887;51.980;4.464;2023-04-24T00:10:32;185.83;;;185.83;;
71183;SDS011;58887;51.980;4.464;2023-04-24T00:12:58;234.03;;;234.03;;
71183;SDS011;58887;51.980;4.464;2023-04-24T00:15:23;301.23;;;301.23;;
71183;SDS011;58887;51.980;4.464;2023-04-24T00:17:49;224.72;;;224.72;;
71183;SDS011;58887;51.980;4.464;2023-04-24T00:20:14;182.64;;;182.64;;
71183;SDS011;58887;51.980;4.464;2023-04-24T00:22:40;183.98;;;183.98;;
71183;SDS011;58887;51.980;4.464;2023-04-24T00:25:06;151.93;;;151.93;;
71183;SDS011;58887;51.980;4.464;2023-04-24T00:27:32;212.33;;;212.33;;
71183;SDS011;58887;51.980;4.464;2023-04-24T00:29:57;300.35;;;300.35;;
71183;SDS011;58887;51.980;4.464;2023-04-24T00:32:23;327.80;;;327.80;;
71183;SDS011;58887;51.980;4.464;2023-04-24T00:34:48;316.88;;;316.88;;
71183;SDS011;58887;51.980;4.464;2023-04-24T00:37:14;334.64;;;334.64;;
71183;SDS011;58887;51.980;4.464;2023-04-24T00:39:40;345.41;;;345.41;;
71183;SDS011;58887;51.980;4.464;2023-04-24T00:42:06;294.74;;;294.74;;
71183;SDS011;58887;51.980;4.464;2023-04-24T00:44:37;276.89;;;276.89;;
71183;SDS011;58887;51.980;4.464;2023-04-24T00:47:03;295.51;;;295.51;;
71183;SDS011;58887;51.980;4.464;2023-04-24T00:49:29;304.63;;;304.63;;
71183;SDS011;58887;51.980;4.464;2023-04-24T00:51:55;305.19;;;305.19;;
71183;SDS011;58887;51.980;4.464;2023-04-24T00:54:21;310.53;;;310.53;;
71183;SDS011;58887;51.980;4.464;2023-04-24T00:56:47;312.70;;;312.70;;
71183;SDS011;58887;51.980;4.464;2023-04-24T00:59:15;302.82;;;302.82;;
71183;SDS011;58887;51.980;4.464;2023-04-24T01:01:42;298.38;;;298.38;;
71183;SDS011;58887;51.980;4.464;2023-04-24T01:04:11;310.55;;;310.55;;
71183;SDS011;58887;51.980;4.464;2023-04-24T01:06:38;313.69;;;313.69;;
71183;SDS011;58887;51.980;4.464;2023-04-24T01:09:05;314.31;;;314.31;;
71183;SDS011;58887;51.980;4.464;2023-04-24T01:11:35;304.50;;;304.50;;
71183;SDS011;58887;51.980;4.464;2023-04-24T01:14:01;294.04;;;294.04;;
71183;SDS011;58887;51.980;4.464;2023-04-24T01:16:27;323.71;;;323.71;;
71183;SDS011;58887;51.980;4.464;2023-04-24T01:18:53;317.15;;;317.15;;
71183;SDS011;58887;51.980;4.464;2023-04-24T01:21:18;305.35;;;305.35;;
71183;SDS011;58887;51.980;4.464;2023-04-24T01:23:47;282.32;;;282.32;;
71183;SDS011;58887;51.980;4.464;2023-04-24T01:26:14;297.53;;;297.53;;
71183;SDS011;58887;51.980;4.464;2023-04-24T01:28:41;306.11;;;306.11;;
71183;SDS011;58887;51.980;4.464;2023-04-24T01:31:12;292.50;;;292.50;;
71183;SDS011;58887;51.980;4.464;2023-04-24T01:33:42;287.59;;;287.59;;
71183;SDS011;58887;51.980;4.464;2023-04-24T01:36:08;313.37;;;313.37;;
71183;SDS011;58887;51.980;4.464;2023-04-24T01:38:36;327.15;;;327.15;;
71183;SDS011;58887;51.980;4.464;2023-04-24T01:41:02;317.98;;;317.98;;
71183;SDS011;58887;51.980;4.464;2023-04-24T01:43:28;293.21;;;293.21;;
71183;SDS011;58887;51.980;4.464;2023-04-24T01:45:54;278.04;;;278.04;;
71183;SDS011;58887;51.980;4.464;2023-04-24T01:48:19;272.88;;;272.88;;
71183;SDS011;58887;51.980;4.464;2023-04-24T01:50:45;288.19;;;288.19;;
71183;SDS011;58887;51.980;4.464;2023-04-24T01:53:11;299.22;;;299.22;;
71183;SDS011;58887;51.980;4.464;2023-04-24T01:55:36;319.03;;;319.03;;
71183;SDS011;58887;51.980;4.464;2023-04-24T01:58:02;303.32;;;303.32;;
71183;SDS011;58887;51.980;4.464;2023-04-24T02:00:28;302.81;;;302.81;;
71183;SDS011;58887;51.980;4.464;2023-04-24T02:02:53;274.35;;;274.35;;
71183;SDS011;58887;51.980;4.464;2023-04-24T02:05:21;256.96;;;256.96;;
71183;SDS011;58887;51.980;4.464;2023-04-24T02:07:49;272.99;;;272.99;;
71183;SDS011;58887;51.980;4.464;2023-04-24T02:10:15;287.28;;;287.28;;
71183;SDS011;58887;51.980;4.464;2023-04-24T02:12:40;295.00;;;295.00;;
71183;SDS011;58887;51.980;4.464;2023-04-24T02:15:06;295.86;;;295.86;;
71183;SDS011;58887;51.980;4.464;2023-04-24T02:17:32;306.05;;;306.05;;
71183;SDS011;58887;51.980;4.464;2023-04-24T02:19:57;285.36;;;285.36;;
71183;SDS011;58887;51.980;4.464;2023-04-24T02:22:23;363.75;;;363.75;;
71183;SDS011;58887;51.980;4.464;2023-04-24T02:24:48;299.35;;;299.35;;
71183;SDS011;58887;51.980;4.464;2023-04-24T02:27:14;275.39;;;275.39;;
71183;SDS011;58887;51.980;4.464;2023-04-24T02:29:40;274.67;;;274.67;;
71183;SDS011;58887;51.980;4.464;2023-04-24T02:32:05;242.23;;;242.23;;
71183;SDS011;58887;51.980;4.464;2023-04-24T02:34:31;166.26;;;166.26;;
71183;SDS011;58887;51.980;4.464;2023-04-24T02:36:56;136.88;;;136.88;;
71183;SDS011;58887;51.980;4.464;2023-04-24T02:39:22;167.52;;;167.52;;
71183;SDS011;58887;51.980;4.464;2023-04-24T02:41:48;164.74;;;164.74;;
71183;SDS011;58887;51.980;4.464;2023-04-24T02:44:15;177.99;;;177.99;;
71183;SDS011;58887;51.980;4.464;2023-04-24T02:46:42;179.76;;;179.76;;
71183;SDS011;58887;51.980;4.464;2023-04-24T02:49:09;187.04;;;187.04;;
71183;SDS011;58887;51.980;4.464;2023-04-24T02:51:37;146.24;;;146.24;;
71183;SDS011;58887;51.980;4.464;2023-04-24T02:54:11;145.83;;;145.83;;
71183;SDS011;58887;51.980;4.464;2023-04-24T02:56:38;157.17;;;157.17;;
71183;SDS011;58887;51.980;4.464;2023-04-24T02:59:04;177.07;;;177.07;;
71183;SDS011;58887;51.980;4.464;2023-04-24T03:01:29;204.02;;;204.02;;
71183;SDS011;58887;51.980;4.464;2023-04-24T03:04:08;206.15;;;206.15;;
71183;SDS011;58887;51.980;4.464;2023-04-24T03:06:33;211.40;;;211.40;;
71183;SDS011;58887;51.980;4.464;2023-04-24T03:09:00;211.50;;;211.50;;
71183;SDS011;58887;51.980;4.464;2023-04-24T03:11:26;138.97;;;138.97;;
71183;SDS011;58887;51.980;4.464;2023-04-24T03:13:51;83.21;;;83.21;;
71183;SDS011;58887;51.980;4.464;2023-04-24T03:16:17;59.05;;;59.05;;
71183;SDS011;58887;51.980;4.464;2023-04-24T03:18:42;54.58;;;54.58;;
71183;SDS011;58887;51.980;4.464;2023-04-24T03:21:08;45.72;;;45.72;;
71183;SDS011;58887;51.980;4.464;2023-04-24T03:23:33;33.00;;;33.00;;
71183;SDS011;58887;51.980;4.464;2023-04-24T03:26:00;17.53;;;17.53;;
71183;SDS011;58887;51.980;4.464;2023-04-24T03:28:25;6.20;;;6.20;;
71183;SDS011;58887;51.980;4.464;2023-04-24T03:30:52;1523.27;;;1523.27;;
71183;SDS011;58887;51.980;4.464;2023-04-24T03:33:18;177.63;;;177.63;;
71183;SDS011;58887;51.980;4.464;2023-04-24T03:35:43;2.46;;;2.46;;
71183;SDS011;58887;51.980;4.464;2023-04-24T03:38:08;2.99;;;2.99;;
71183;SDS011;58887;51.980;4.464;2023-04-24T03:40:34;1.84;;;1.84;;
71183;SDS011;58887;51.980;4.464;2023-04-24T03:42:59;1.15;;;1.15;;
71183;SDS011;58887;51.980;4.464;2023-04-24T03:45:25;0.79;;;0.79;;
71183;SDS011;58887;51.980;4.464;2023-04-24T03:47:50;0.60;;;0.60;;
71183;SDS011;58887;51.980;4.464;2023-04-24T03:50:16;0.66;;;0.66;;
71183;SDS011;58887;51.980;4.464;2023-04-24T03:52:41;0.71;;;0.71;;
71183;SDS011;58887;51.980;4.464;2023-04-24T03:55:07;0.70;;;0.70;;
71183;SDS011;58887;51.980;4.464;2023-04-24T03:57:33;0.87;;;0.87;;
71183;SDS011;58887;51.980;4.464;2023-04-24T03:59:58;0.50;;;0.50;;
71183;SDS011;58887;51.980;4.464;2023-04-24T04:02:24;0.50;;;0.50;;
71183;SDS011;58887;51.980;4.464;2023-04-24T04:04:49;0.43;;;0.43;;
71183;SDS011;58887;51.980;4.464;2023-04-24T04:07:14;0.72;;;0.72;;
71183;SDS011;58887;51.980;4.464;2023-04-24T04:09:40;0.62;;;0.62;;
71183;SDS011;58887;51.980;4.464;2023-04-24T04:12:05;0.93;;;0.93;;
71183;SDS011;58887;51.980;4.464;2023-04-24T04:14:31;1.72;;;1.72;;
71183;SDS011;58887;51.980;4.464;2023-04-24T04:16:59;1.88;;;1.88;;
71183;SDS011;58887;51.980;4.464;2023-04-24T04:19:25;1.74;;;1.74;;
71183;SDS011;58887;51.980;4.464;2023-04-24T04:21:50;4.33;;;4.33;;
71183;SDS011;58887;51.980;4.464;2023-04-24T04:24:18;20.63;;;20.63;;
71183;SDS011;58887;51.980;4.464;2023-04-24T04:26:46;49.72;;;49.72;;
71183;SDS011;58887;51.980;4.464;2023-04-24T04:29:12;121.43;;;121.43;;
71183;SDS011;58887;51.980;4.464;2023-04-24T04:31:38;199.24;;;199.24;;
71183;SDS011;58887;51.980;4.464;2023-04-24T04:34:04;201.10;;;201.10;;
71183;SDS011;58887;51.980;4.464;2023-04-24T04:36:29;210.39;;;210.39;;
71183;SDS011;58887;51.980;4.464;2023-04-24T04:38:55;204.21;;;204.21;;
71183;SDS011;58887;51.980;4.464;2023-04-24T04:41:21;304.42;;;304.42;;
71183;SDS011;58887;51.980;4.464;2023-04-24T04:43:48;320.66;;;320.66;;
71183;SDS011;58887;51.980;4.464;2023-04-24T04:46:13;327.85;;;327.85;;
71183;SDS011;58887;51.980;4.464;2023-04-24T04:48:39;379.96;;;379.96;;
71183;SDS011;58887;51.980;4.464;2023-04-24T04:51:05;385.26;;;385.26;;
71183;SDS011;58887;51.980;4.464;2023-04-24T04:53:31;343.11;;;343.11;;
71183;SDS011;58887;51.980;4.464;2023-04-24T04:55:56;351.93;;;351.93;;
71183;SDS011;58887;51.980;4.464;2023-04-24T04:58:22;275.51;;;275.51;;
71183;SDS011;58887;51.980;4.464;2023-04-24T05:00:48;468.50;;;468.50;;
71183;SDS011;58887;51.980;4.464;2023-04-24T05:03:14;439.16;;;439.16;;
71183;SDS011;58887;51.980;4.464;2023-04-24T05:05:40;195.79;;;195.79;;
71183;SDS011;58887;51.980;4.464;2023-04-24T05:08:08;241.16;;;241.16;;
71183;SDS011;58887;51.980;4.464;2023-04-24T05:10:34;246.24;;;246.24;;
71183;SDS011;58887;51.980;4.464;2023-04-24T05:13:02;196.44;;;196.44;;
71183;SDS011;58887;51.980;4.464;2023-04-24T05:15:28;253.97;;;253.97;;
71183;SDS011;58887;51.980;4.464;2023-04-24T05:17:54;321.75;;;321.75;;
71183;SDS011;58887;51.980;4.464;2023-04-24T05:20:19;270.74;;;270.74;;
71183;SDS011;58887;51.980;4.464;2023-04-24T05:22:46;304.11;;;304.11;;
71183;SDS011;58887;51.980;4.464;2023-04-24T05:25:11;266.28;;;266.28;;
71183;SDS011;58887;51.980;4.464;2023-04-24T05:27:37;211.93;;;211.93;;
71183;SDS011;58887;51.980;4.464;2023-04-24T05:30:03;118.04;;;118.04;;
71183;SDS011;58887;51.980;4.464;2023-04-24T05:32:29;108.49;;;108.49;;
71183;SDS011;58887;51.980;4.464;2023-04-24T05:34:55;120.27;;;120.27;;
71183;SDS011;58887;51.980;4.464;2023-04-24T05:37:21;90.52;;;90.52;;
71183;SDS011;58887;51.980;4.464;2023-04-24T05:39:46;115.32;;;115.32;;
71183;SDS011;58887;51.980;4.464;2023-04-24T05:42:12;183.93;;;183.93;;
71183;SDS011;58887;51.980;4.464;2023-04-24T05:44:37;138.80;;;138.80;;
71183;SDS011;58887;51.980;4.464;2023-04-24T05:47:04;156.24;;;156.24;;
71183;SDS011;58887;51.980;4.464;2023-04-24T05:49:29;120.35;;;120.35;;
71183;SDS011;58887;51.980;4.464;2023-04-24T05:51:55;153.42;;;153.42;;
71183;SDS011;58887;51.980;4.464;2023-04-24T05:54:21;124.91;;;124.91;;
71183;SDS011;58887;51.980;4.464;2023-04-24T05:56:46;156.24;;;156.24;;
71183;SDS011;58887;51.980;4.464;2023-04-24T05:59:12;142.08;;;142.08;;
71183;SDS011;58887;51.980;4.464;2023-04-24T06:01:37;198.91;;;198.91;;
71183;SDS011;58887;51.980;4.464;2023-04-24T06:04:05;173.54;;;173.54;;
71183;SDS011;58887;51.980;4.464;2023-04-24T06:06:33;162.47;;;162.47;;
71183;SDS011;58887;51.980;4.464;2023-04-24T06:09:00;142.49;;;142.49;;
71183;SDS011;58887;51.980;4.464;2023-04-24T06:11:26;135.75;;;135.75;;
71183;SDS011;58887;51.980;4.464;2023-04-24T06:13:51;162.97;;;162.97;;
71183;SDS011;58887;51.980;4.464;2023-04-24T06:16:17;122.57;;;122.57;;
71183;SDS011;58887;51.980;4.464;2023-04-24T06:18:43;128.17;;;128.17;;
71183;SDS011;58887;51.980;4.464;2023-04-24T06:21:08;128.79;;;128.79;;
71183;SDS011;58887;51.980;4.464;2023-04-24T06:23:34;69.42;;;69.42;;
71183;SDS011;58887;51.980;4.464;2023-04-24T06:25:59;74.83;;;74.83;;
71183;SDS011;58887;51.980;4.464;2023-04-24T06:28:32;150.65;;;150.65;;
71183;SDS011;58887;51.980;4.464;2023-04-24T06:30:57;85.38;;;85.38;;
71183;SDS011;58887;51.980;4.464;2023-04-24T06:33:23;84.18;;;84.18;;
71183;SDS011;58887;51.980;4.464;2023-04-24T06:35:51;138.97;;;138.97;;
71183;SDS011;58887;51.980;4.464;2023-04-24T06:38:16;229.43;;;229.43;;
71183;SDS011;58887;51.980;4.464;2023-04-24T06:40:42;157.69;;;157.69;;
71183;SDS011;58887;51.980;4.464;2023-04-24T06:43:07;110.11;;;110.11;;
71183;SDS011;58887;51.980;4.464;2023-04-24T06:45:33;107.20;;;107.20;;
71183;SDS011;58887;51.980;4.464;2023-04-24T06:47:58;144.44;;;144.44;;
71183;SDS011;58887;51.980;4.464;2023-04-24T06:50:24;305.87;;;305.87;;
71183;SDS011;58887;51.980;4.464;2023-04-24T06:52:50;151.46;;;151.46;;
71183;SDS011;58887;51.980;4.464;2023-04-24T06:55:15;144.26;;;144.26;;
71183;SDS011;58887;51.980;4.464;2023-04-24T06:57:42;168.79;;;168.79;;
71183;SDS011;58887;51.980;4.464;2023-04-24T07:00:09;138.86;;;138.86;;
71183;SDS011;58887;51.980;4.464;2023-04-24T07:02:35;123.18;;;123.18;;
71183;SDS011;58887;51.980;4.464;2023-04-24T07:05:00;88.01;;;88.01;;
71183;SDS011;58887;51.980;4.464;2023-04-24T07:07:26;102.47;;;102.47;;
71183;SDS011;58887;51.980;4.464;2023-04-24T07:09:52;107.49;;;107.49;;
71183;SDS011;58887;51.980;4.464;2023-04-24T07:12:19;215.14;;;215.14;;
71183;SDS011;58887;51.980;4.464;2023-04-24T07:17:23;119.61;;;119.61;;
71183;SDS011;58887;51.980;4.464;2023-04-24T07:19:48;280.22;;;280.22;;
71183;SDS011;58887;51.980;4.464;2023-04-24T07:22:17;141.74;;;141.74;;
71183;SDS011;58887;51.980;4.464;2023-04-24T07:24:43;84.05;;;84.05;;
71183;SDS011;58887;51.980;4.464;2023-04-24T07:27:09;44.59;;;44.59;;
71183;SDS011;58887;51.980;4.464;2023-04-24T07:29:35;73.87;;;73.87;;
71183;SDS011;58887;51.980;4.464;2023-04-24T07:32:00;63.98;;;63.98;;
71183;SDS011;58887;51.980;4.464;2023-04-24T07:34:26;123.31;;;123.31;;
71183;SDS011;58887;51.980;4.464;2023-04-24T07:36:51;84.98;;;84.98;;
71183;SDS011;58887;51.980;4.464;2023-04-24T07:39:18;42.73;;;42.73;;
71183;SDS011;58887;51.980;4.464;2023-04-24T07:41:43;44.62;;;44.62;;
71183;SDS011;58887;51.980;4.464;2023-04-24T07:44:09;24.26;;;24.26;;
71183;SDS011;58887;51.980;4.464;2023-04-24T07:46:35;19.93;;;19.93;;
71183;SDS011;58887;51.980;4.464;2023-04-24T07:49:00;21.26;;;21.26;;
71183;SDS011;58887;51.980;4.464;2023-04-24T07:51:26;49.59;;;49.59;;
71183;SDS011;58887;51.980;4.464;2023-04-24T07:53:56;24.41;;;24.41;;
71183;SDS011;58887;51.980;4.464;2023-04-24T07:56:21;31.98;;;31.98;;
71183;SDS011;58887;51.980;4.464;2023-04-24T07:58:47;85.87;;;85.87;;
71183;SDS011;58887;51.980;4.464;2023-04-24T08:01:12;36.77;;;36.77;;
71183;SDS011;58887;51.980;4.464;2023-04-24T08:03:38;10.87;;;10.87;;
71183;SDS011;58887;51.980;4.464;2023-04-24T08:06:03;3.97;;;3.97;;
71183;SDS011;58887;51.980;4.464;2023-04-24T08:08:29;7.33;;;7.33;;
71183;SDS011;58887;51.980;4.464;2023-04-24T08:10:55;8.98;;;8.98;;
71183;SDS011;58887;51.980;4.464;2023-04-24T08:13:20;12.38;;;12.38;;
71183;SDS011;58887;51.980;4.464;2023-04-24T08:15:46;5.77;;;5.77;;
71183;SDS011;58887;51.980;4.464;2023-04-24T08:18:11;2.34;;;2.34;;
71183;SDS011;58887;51.980;4.464;2023-04-24T08:20:38;45.89;;;45.89;;
71183;SDS011;58887;51.980;4.464;2023-04-24T08:23:04;36.46;;;36.46;;
71183;SDS011;58887;51.980;4.464;2023-04-24T08:25:30;35.35;;;35.35;;
71183;SDS011;58887;51.980;4.464;2023-04-24T08:27:55;29.69;;;29.69;;
71183;SDS011;58887;51.980;4.464;2023-04-24T08:30:21;29.02;;;29.02;;
71183;SDS011;58887;51.980;4.464;2023-04-24T08:32:47;13.56;;;13.56;;
71183;SDS011;58887;51.980;4.464;2023-04-24T08:35:13;16.72;;;16.72;;
71183;SDS011;58887;51.980;4.464;2023-04-24T08:37:38;5.96;;;5.96;;
71183;SDS011;58887;51.980;4.464;2023-04-24T08:40:05;6.27;;;6.27;;
71183;SDS011;58887;51.980;4.464;2023-04-24T08:42:39;9.37;;;9.37;;
71183;SDS011;58887;51.980;4.464;2023-04-24T08:45:07;16.43;;;16.43;;
71183;SDS011;58887;51.980;4.464;2023-04-24T08:47:34;15.85;;;15.85;;
71183;SDS011;58887;51.980;4.464;2023-04-24T08:50:02;14.47;;;14.47;;
71183;SDS011;58887;51.980;4.464;2023-04-24T08:52:28;3.82;;;3.82;;
71183;SDS011;58887;51.980;4.464;2023-04-24T08:54:55;4.16;;;4.16;;
71183;SDS011;58887;51.980;4.464;2023-04-24T08:57:22;2.98;;;2.98;;
71183;SDS011;58887;51.980;4.464;2023-04-24T08:59:47;5.14;;;5.14;;
71183;SDS011;58887;51.980;4.464;2023-04-24T09:02:14;7.71;;;7.71;;
71183;SDS011;58887;51.980;4.464;2023-04-24T09:04:42;6.76;;;6.76;;
71183;SDS011;58887;51.980;4.464;2023-04-24T09:07:09;3.05;;;3.05;;
71183;SDS011;58887;51.980;4.464;2023-04-24T09:09:36;6.24;;;6.24;;
71183;SDS011;58887;51.980;4.464;2023-04-24T09:12:04;22.00;;;22.00;;
71183;SDS011;58887;51.980;4.464;2023-04-24T09:14:30;15.39;;;15.39;;
71183;SDS011;58887;51.980;4.464;2023-04-24T09:16:57;9.74;;;9.74;;
71183;SDS011;58887;51.980;4.464;2023-04-24T09:19:22;18.18;;;18.18;;
71183;SDS011;58887;51.980;4.464;2023-04-24T09:21:48;20.40;;;20.40;;
71183;SDS011;58887;51.980;4.464;2023-04-24T09:24:18;265.48;;;263.52;;
71183;SDS011;58887;51.980;4.464;2023-04-24T09:26:47;126.09;;;126.09;;
71183;SDS011;58887;51.980;4.464;2023-04-24T09:29:18;52.87;;;52.87;;
71183;SDS011;58887;51.980;4.464;2023-04-24T09:31:44;35.70;;;35.70;;
71183;SDS011;58887;51.980;4.464;2023-04-24T09:34:11;56.10;;;56.10;;
71183;SDS011;58887;51.980;4.464;2023-04-24T09:36:38;47.93;;;47.93;;
71183;SDS011;58887;51.980;4.464;2023-04-24T09:39:07;64.99;;;64.99;;
71183;SDS011;58887;51.980;4.464;2023-04-24T09:41:56;96.44;;;96.44;;
71183;SDS011;58887;51.980;4.464;2023-04-24T09:44:25;119.66;;;119.66;;
71183;SDS011;58887;51.980;4.464;2023-04-24T09:49:25;44.85;;;44.85;;
71183;SDS011;58887;51.980;4.464;2023-04-24T09:51:52;111.55;;;111.55;;
71183;SDS011;58887;51.980;4.464;2023-04-24T09:54:27;60.63;;;60.63;;
71183;SDS011;58887;51.980;4.464;2023-04-24T09:56:52;70.45;;;70.45;;
71183;SDS011;58887;51.980;4.464;2023-04-24T09:59:19;24.82;;;24.82;;
71183;SDS011;58887;51.980;4.464;2023-04-24T10:01:45;283.07;;;283.07;;
71183;SDS011;58887;51.980;4.464;2023-04-24T10:04:15;39.40;;;39.40;;
71183;SDS011;58887;51.980;4.464;2023-04-24T10:06:42;52.34;;;52.34;;
71183;SDS011;58887;51.980;4.464;2023-04-24T10:09:08;92.33;;;92.33;;
71183;SDS011;58887;51.980;4.464;2023-04-24T10:11:36;42.42;;;42.42;;
71183;SDS011;58887;51.980;4.464;2023-04-24T10:14:02;34.35;;;34.35;;
71183;SDS011;58887;51.980;4.464;2023-04-24T10:16:28;28.77;;;28.77;;
71183;SDS011;58887;51.980;4.464;2023-04-24T10:18:56;32.39;;;32.39;;
71183;SDS011;58887;51.980;4.464;2023-04-24T10:21:24;32.22;;;32.22;;
71183;SDS011;58887;51.980;4.464;2023-04-24T10:23:51;58.17;;;58.17;;
71183;SDS011;58887;51.980;4.464;2023-04-24T10:26:19;64.90;;;64.90;;
71183;SDS011;58887;51.980;4.464;2023-04-24T10:28:47;61.45;;;61.45;;
71183;SDS011;58887;51.980;4.464;2023-04-24T10:31:13;60.32;;;60.32;;
71183;SDS011;58887;51.980;4.464;2023-04-24T10:33:43;64.16;;;64.16;;
71183;SDS011;58887;51.980;4.464;2023-04-24T10:36:10;78.80;;;78.80;;
71183;SDS011;58887;51.980;4.464;2023-04-24T10:38:39;73.77;;;73.77;;
71183;SDS011;58887;51.980;4.464;2023-04-24T10:41:09;65.58;;;65.58;;
71183;SDS011;58887;51.980;4.464;2023-04-24T10:43:41;73.61;;;73.61;;
71183;SDS011;58887;51.980;4.464;2023-04-24T10:46:07;68.07;;;68.07;;
71183;SDS011;58887;51.980;4.464;2023-04-24T10:48:35;51.92;;;51.92;;
71183;SDS011;58887;51.980;4.464;2023-04-24T10:51:10;74.13;;;74.13;;
71183;SDS011;58887;51.980;4.464;2023-04-24T10:53:37;9.01;;;9.01;;
71183;SDS011;58887;51.980;4.464;2023-04-24T10:56:04;3.48;;;3.48;;
71183;SDS011;58887;51.980;4.464;2023-04-24T10:58:38;1.14;;;1.14;;
71183;SDS011;58887;51.980;4.464;2023-04-24T11:01:08;1.21;;;1.21;;
71183;SDS011;58887;51.980;4.464;2023-04-24T11:03:34;4.17;;;4.17;;
71183;SDS011;58887;51.980;4.464;2023-04-24T11:06:05;60.16;;;60.16;;
71183;SDS011;58887;51.980;4.464;2023-04-24T11:08:39;53.97;;;53.97;;
71183;SDS011;58887;51.980;4.464;2023-04-24T11:11:10;29.77;;;29.77;;
71183;SDS011;58887;51.980;4.464;2023-04-24T11:16:23;1.52;;;1.52;;
71183;SDS011;58887;51.980;4.464;2023-04-24T11:19:01;0.75;;;0.75;;
71183;SDS011;58887;51.980;4.464;2023-04-24T11:24:49;0.62;;;0.62;;
71183;SDS011;58887;51.980;4.464;2023-04-24T11:27:16;0.65;;;0.65;;
71183;SDS011;58887;51.980;4.464;2023-04-24T11:32:28;0.82;;;0.82;;
71183;SDS011;58887;51.980;4.464;2023-04-24T11:37:37;0.95;;;0.92;;
71183;SDS011;58887;51.980;4.464;2023-04-24T11:40:07;1.16;;;1.04;;
71183;SDS011;58887;51.980;4.464;2023-04-24T11:42:38;1.04;;;0.93;;
71183;SDS011;58887;51.980;4.464;2023-04-24T11:45:11;1.29;;;1.12;;
71183;SDS011;58887;51.980;4.464;2023-04-24T11:47:41;1.29;;;1.10;;
71183;SDS011;58887;51.980;4.464;2023-04-24T11:50:10;1.56;;;1.30;;
71183;SDS011;58887;51.980;4.464;2023-04-24T11:52:39;1.55;;;1.27;;
71183;SDS011;58887;51.980;4.464;2023-04-24T11:55:27;1.38;;;1.11;;
71183;SDS011;58887;51.980;4.464;2023-04-24T11:57:54;1.71;;;1.34;;
71183;SDS011;58887;51.980;4.464;2023-04-24T12:03:10;1.90;;;1.50;;
71183;SDS011;58887;51.980;4.464;2023-04-24T12:05:36;1.85;;;1.39;;
71183;SDS011;58887;51.980;4.464;2023-04-24T12:08:03;2.12;;;1.59;;
71183;SDS011;58887;51.980;4.464;2023-04-24T12:10:30;2.14;;;1.60;;
71183;SDS011;58887;51.980;4.464;2023-04-24T12:12:57;2.47;;;1.84;;
71183;SDS011;58887;51.980;4.464;2023-04-24T12:15:25;2.67;;;2.04;;
71183;SDS011;58887;51.980;4.464;2023-04-24T12:17:52;1.82;;;1.40;;
71183;SDS011;58887;51.980;4.464;2023-04-24T12:20:26;2.17;;;1.65;;
71183;SDS011;58887;51.980;4.464;2023-04-24T12:22:56;2.55;;;1.92;;
71183;SDS011;58887;51.980;4.464;2023-04-24T12:25:24;2.76;;;2.08;;
71183;SDS011;58887;51.980;4.464;2023-04-24T12:27:52;3.67;;;3.17;;
71183;SDS011;58887;51.980;4.464;2023-04-24T12:30:20;3.75;;;3.75;;
71183;SDS011;58887;51.980;4.464;2023-04-24T12:32:51;1.82;;;1.82;;
71183;SDS011;58887;51.980;4.464;2023-04-24T12:35:20;1.75;;;1.75;;
71183;SDS011;58887;51.980;4.464;2023-04-24T12:37:48;1.96;;;1.90;;
71183;SDS011;58887;51.980;4.464;2023-04-24T12:40:15;2.47;;;2.09;;
71183;SDS011;58887;51.980;4.464;2023-04-24T12:42:43;2.77;;;2.19;;
71183;SDS011;58887;51.980;4.464;2023-04-24T12:45:13;2.87;;;2.22;;
71183;SDS011;58887;51.980;4.464;2023-04-24T12:47:39;2.52;;;1.95;;
71183;SDS011;58887;51.980;4.464;2023-04-24T12:50:07;2.41;;;1.85;;
71183;SDS011;58887;51.980;4.464;2023-04-24T12:52:33;3.36;;;2.51;;
71183;SDS011;58887;51.980;4.464;2023-04-24T12:55:00;3.22;;;2.45;;
71183;SDS011;58887;51.980;4.464;2023-04-24T12:57:26;3.10;;;2.39;;
71183;SDS011;58887;51.980;4.464;2023-04-24T12:59:53;3.59;;;2.85;;
71183;SDS011;58887;51.980;4.464;2023-04-24T13:02:20;2.89;;;2.34;;
71183;SDS011;58887;51.980;4.464;2023-04-24T13:04:47;2.97;;;2.46;;
71183;SDS011;58887;51.980;4.464;2023-04-24T13:07:13;2.91;;;2.40;;
71183;SDS011;58887;51.980;4.464;2023-04-24T13:09:40;2.71;;;2.29;;
71183;SDS011;58887;51.980;4.464;2023-04-24T13:12:07;2.63;;;2.20;;
71183;SDS011;58887;51.980;4.464;2023-04-24T13:14:33;3.15;;;2.71;;
71183;SDS011;58887;51.980;4.464;2023-04-24T13:16:59;5.76;;;5.76;;
71183;SDS011;58887;51.980;4.464;2023-04-24T13:19:25;23.91;;;23.91;;
71183;SDS011;58887;51.980;4.464;2023-04-24T13:21:52;34.12;;;34.12;;
71183;SDS011;58887;51.980;4.464;2023-04-24T13:24:20;27.98;;;27.98;;
71183;SDS011;58887;51.980;4.464;2023-04-24T13:26:45;7.31;;;7.31;;
71183;SDS011;58887;51.980;4.464;2023-04-24T13:29:11;2.44;;;2.44;;
71183;SDS011;58887;51.980;4.464;2023-04-24T13:31:36;1.94;;;1.94;;
71183;SDS011;58887;51.980;4.464;2023-04-24T13:34:02;1.76;;;1.76;;
71183;SDS011;58887;51.980;4.464;2023-04-24T13:36:28;2.28;;;2.10;;
71183;SDS011;58887;51.980;4.464;2023-04-24T13:38:55;2.47;;;2.19;;
71183;SDS011;58887;51.980;4.464;2023-04-24T13:41:20;2.19;;;1.97;;
71183;SDS011;58887;51.980;4.464;2023-04-24T13:43:46;2.19;;;1.97;;
71183;SDS011;58887;51.980;4.464;2023-04-24T13:46:11;2.27;;;2.05;;
71183;SDS011;58887;51.980;4.464;2023-04-24T13:48:37;1.76;;;1.62;;
71183;SDS011;58887;51.980;4.464;2023-04-24T13:51:02;1.84;;;1.69;;
71183;SDS011;58887;51.980;4.464;2023-04-24T13:53:28;1.76;;;1.63;;
71183;SDS011;58887;51.980;4.464;2023-04-24T13:55:53;1.79;;;1.66;;
71183;SDS011;58887;51.980;4.464;2023-04-24T13:58:19;1.96;;;1.79;;
71183;SDS011;58887;51.980;4.464;2023-04-24T14:00:45;2.07;;;1.89;;
71183;SDS011;58887;51.980;4.464;2023-04-24T14:03:11;2.26;;;2.07;;
71183;SDS011;58887;51.980;4.464;2023-04-24T14:05:37;2.45;;;2.27;;
71183;SDS011;58887;51.980;4.464;2023-04-24T14:08:03;2.57;;;2.36;;
71183;SDS011;58887;51.980;4.464;2023-04-24T14:10:28;2.66;;;2.43;;
71183;SDS011;58887;51.980;4.464;2023-04-24T14:12:54;2.90;;;2.60;;
71183;SDS011;58887;51.980;4.464;2023-04-24T14:15:20;3.09;;;2.76;;
71183;SDS011;58887;51.980;4.464;2023-04-24T14:17:46;3.10;;;2.76;;
71183;SDS011;58887;51.980;4.464;2023-04-24T14:20:12;3.38;;;3.03;;
71183;SDS011;58887;51.980;4.464;2023-04-24T14:22:38;5.89;;;5.80;;
71183;SDS011;58887;51.980;4.464;2023-04-24T14:25:04;73.91;;;73.91;;
71183;SDS011;58887;51.980;4.464;2023-04-24T14:27:31;24.87;;;24.87;;
71183;SDS011;58887;51.980;4.464;2023-04-24T14:29:57;21.64;;;21.64;;
71183;SDS011;58887;51.980;4.464;2023-04-24T14:32:22;13.01;;;13.01;;
71183;SDS011;58887;51.980;4.464;2023-04-24T14:34:49;8.50;;;8.50;;